createdAt,value
2018-01-26T00:00:48.382Z,95.70
2018-01-26T00:03:17.145Z,95.70
2018-01-26T00:05:45.653Z,96.20
2018-01-26T00:08:13.261Z,96.60
2018-01-26T00:10:40.889Z,96.70
2018-01-26T00:13:08.634Z,96.90
2018-01-26T00:15:36.230Z,95.70
2018-01-26T00:18:05.130Z,95.30
2018-01-26T00:20:33.671Z,94.80
2018-01-26T00:23:01.286Z,95.20
2018-01-26T00:25:28.958Z,95.90
2018-01-26T00:27:57.446Z,95.90
2018-01-26T00:30:25.782Z,95.20
2018-01-26T00:32:53.350Z,95.20
2018-01-26T00:35:20.924Z,95.20
2018-01-26T00:37:48.510Z,94.40
2018-01-26T00:40:16.065Z,94.50
2018-01-26T00:42:43.646Z,94.00
2018-01-26T00:45:11.206Z,93.80
2018-01-26T00:47:38.804Z,94.40
2018-01-26T00:50:06.347Z,95.50
2018-01-26T00:52:33.910Z,96.00
2018-01-26T00:55:02.194Z,96.00
2018-01-26T00:57:29.777Z,96.00
2018-01-26T00:59:57.399Z,96.20
2018-01-26T01:02:25.072Z,96.20
2018-01-26T01:04:52.643Z,95.50
2018-01-26T01:07:20.306Z,95.40
2018-01-26T01:09:47.882Z,95.40
2018-01-26T01:12:15.515Z,95.80
2018-01-26T01:14:43.174Z,96.40
2018-01-26T01:17:10.899Z,95.90
2018-01-26T01:19:38.556Z,95.20
2018-01-26T01:22:06.932Z,96.00
2018-01-26T01:24:34.666Z,95.90
2018-01-26T01:27:02.222Z,96.30
2018-01-26T01:29:30.160Z,97.00
2018-01-26T01:31:58.587Z,97.40
2018-01-26T01:34:27.003Z,97.40
2018-01-26T01:36:55.641Z,98.20
2018-01-26T01:39:23.322Z,97.90
2018-01-26T01:41:51.794Z,97.90
2018-01-26T01:44:19.406Z,97.80
2018-01-26T01:46:47.041Z,97.10
2018-01-26T01:49:16.487Z,97.10
2018-01-26T01:51:44.785Z,96.50
2018-01-26T01:54:12.386Z,96.40
2018-01-26T01:56:40.040Z,96.80
2018-01-26T01:59:07.677Z,97.20
2018-01-26T02:01:35.419Z,97.20
2018-01-26T02:04:03.954Z,97.00
2018-01-26T02:06:31.526Z,97.00
2018-01-26T02:08:59.243Z,96.60
2018-01-26T02:11:26.840Z,94.50
2018-01-26T02:13:54.478Z,94.30
2018-01-26T02:16:22.042Z,94.90
2018-01-26T02:18:50.404Z,92.20
2018-01-26T02:21:18.003Z,92.20
2018-01-26T02:24:06.286Z,91.80
2018-01-26T02:26:45.093Z,90.40
2018-01-26T02:29:20.667Z,90.90
2018-01-26T02:31:55.376Z,91.50
2018-01-26T02:34:31.040Z,91.40
2018-01-26T02:36:59.258Z,91.40
2018-01-26T02:39:27.128Z,90.90
2018-01-26T02:44:36.103Z,91.90
2018-01-26T02:47:08.598Z,92.20
2018-01-26T02:49:54.573Z,93.60
2018-01-26T02:52:29.662Z,93.60
2018-01-26T02:55:02.417Z,94.70
2018-01-26T02:57:30.286Z,94.30
2018-01-26T02:59:58.243Z,94.20
2018-01-26T03:05:10.894Z,98.00
2018-01-26T03:08:01.690Z,98.00
2018-01-26T03:10:42.870Z,99.60
2018-01-26T03:13:17.873Z,99.90
2018-01-26T03:15:49.978Z,99.90
2018-01-26T03:18:18.532Z,99.90
2018-01-26T03:20:59.419Z,99.90
2018-01-26T03:26:16.088Z,99.90
2018-01-26T03:28:48.565Z,99.90
2018-01-26T03:31:21.117Z,99.90
2018-01-26T03:33:53.269Z,99.90
2018-01-26T03:38:58.041Z,99.90
2018-01-26T03:41:38.809Z,99.90
2018-01-26T03:44:06.830Z,99.90
2018-01-26T03:46:34.475Z,99.90
2018-01-26T03:49:02.533Z,99.90
2018-01-26T03:51:33.079Z,99.90
2018-01-26T03:59:30.729Z,99.90
2018-01-26T04:02:05.154Z,99.90
2018-01-26T04:04:38.528Z,99.90
2018-01-26T04:07:06.225Z,99.90
2018-01-26T04:09:34.582Z,99.90
2018-01-26T04:12:03.365Z,99.90
2018-01-26T04:14:30.990Z,99.90
2018-01-26T04:17:00.680Z,99.90
2018-01-26T04:19:28.444Z,99.90
2018-01-26T04:21:56.140Z,99.90
2018-01-26T04:24:24.503Z,99.90
2018-01-26T04:26:52.634Z,99.90
2018-01-26T04:29:21.056Z,99.90
2018-01-26T04:31:48.781Z,99.90
2018-01-26T04:34:18.755Z,99.90
2018-01-26T04:36:47.083Z,99.90
2018-01-26T04:41:54.204Z,99.90
2018-01-26T04:50:04.810Z,99.90
2018-01-26T04:52:32.466Z,99.90
2018-01-26T04:55:01.698Z,99.90
2018-01-26T04:57:30.634Z,99.90
2018-01-26T04:59:58.563Z,99.90
2018-01-26T05:02:27.815Z,99.90
2018-01-26T05:04:56.626Z,99.90
2018-01-26T05:07:24.232Z,99.90
2018-01-26T05:09:51.913Z,99.90
2018-01-26T05:12:19.674Z,99.90
2018-01-26T05:14:47.374Z,99.90
2018-01-26T05:17:14.969Z,99.90
2018-01-26T05:19:45.652Z,99.90
2018-01-26T05:22:24.644Z,99.90
2018-01-26T05:24:52.868Z,99.90
2018-01-26T05:27:20.967Z,99.90
2018-01-26T05:29:48.747Z,99.90
2018-01-26T05:32:19.046Z,99.90
2018-01-26T05:37:33.001Z,99.90
2018-01-26T05:40:11.230Z,99.90
2018-01-26T05:42:54.202Z,99.90
2018-01-26T05:45:43.698Z,99.90
2018-01-26T05:48:15.341Z,99.90
2018-01-26T05:50:55.416Z,99.90
2018-01-26T05:56:25.959Z,99.90
2018-01-26T05:59:17.148Z,99.90
2018-01-26T06:01:59.131Z,99.90
2018-01-26T06:04:43.658Z,99.90
2018-01-26T06:07:19.591Z,99.90
2018-01-26T06:09:54.056Z,99.90
2018-01-26T06:12:31.163Z,99.90
2018-01-26T06:15:14.105Z,99.90
2018-01-26T06:20:36.554Z,99.90
2018-01-26T06:23:04.191Z,99.90
2018-01-26T06:25:31.997Z,99.90
2018-01-26T06:28:00.554Z,99.90
2018-01-26T06:30:29.009Z,99.90
2018-01-26T06:32:56.623Z,99.90
2018-01-26T06:35:24.874Z,99.90
2018-01-26T06:37:52.617Z,99.90
2018-01-26T06:40:21.061Z,99.90
2018-01-26T06:42:49.646Z,99.90
2018-01-26T06:45:17.456Z,99.90
2018-01-26T06:47:45.080Z,99.90
2018-01-26T06:50:12.983Z,99.90
2018-01-26T06:52:41.395Z,99.90
2018-01-26T06:55:10.824Z,99.90
2018-01-26T06:57:38.471Z,99.90
2018-01-26T07:00:06.152Z,99.90
2018-01-26T07:02:33.759Z,99.90
2018-01-26T07:05:01.396Z,99.90
2018-01-26T07:07:29.832Z,99.90
2018-01-26T07:09:57.476Z,99.90
2018-01-26T07:12:25.151Z,99.90
2018-01-26T07:14:52.827Z,99.90
2018-01-26T07:17:20.461Z,99.90
2018-01-26T07:19:48.249Z,99.90
2018-01-26T07:22:16.793Z,99.90
2018-01-26T07:24:44.546Z,99.90
2018-01-26T07:27:12.217Z,99.90
2018-01-26T07:29:40.644Z,99.90
2018-01-26T07:32:09.085Z,99.90
2018-01-26T07:34:36.950Z,99.90
2018-01-26T07:37:05.485Z,99.90
2018-01-26T07:39:33.154Z,99.90
2018-01-26T07:42:00.904Z,99.90
2018-01-26T07:44:29.514Z,99.90
2018-01-26T07:46:57.207Z,99.90
2018-01-26T07:49:24.885Z,99.90
2018-01-26T07:51:52.567Z,99.90
2018-01-26T07:54:20.362Z,99.90
2018-01-26T07:56:48.230Z,99.90
2018-01-26T07:59:16.012Z,99.90
2018-01-26T08:01:43.723Z,99.90
2018-01-26T08:04:12.098Z,99.90
2018-01-26T08:06:39.888Z,99.90
2018-01-26T08:09:07.587Z,99.90
2018-01-26T08:11:36.100Z,99.90
2018-01-26T08:14:03.685Z,99.90
2018-01-26T08:16:31.325Z,99.90
2018-01-26T08:18:59.105Z,99.90
2018-01-26T08:21:26.795Z,99.90
2018-01-26T08:23:54.357Z,99.90
2018-01-26T08:26:22.077Z,99.90
2018-01-26T08:28:49.949Z,99.90
2018-01-26T08:31:17.675Z,99.90
2018-01-26T08:33:45.673Z,99.90
2018-01-26T08:36:14.098Z,99.90
2018-01-26T08:38:42.385Z,99.90
2018-01-26T08:41:10.234Z,99.90
2018-01-26T08:43:38.176Z,99.90
2018-01-26T08:46:05.836Z,99.90
2018-01-26T08:48:33.464Z,99.90
2018-01-26T08:51:02.342Z,99.90
2018-01-26T08:53:29.964Z,99.90
2018-01-26T08:55:57.692Z,99.90
2018-01-26T08:58:26.058Z,99.90
2018-01-26T09:00:53.720Z,99.90
2018-01-26T09:03:21.424Z,99.90
2018-01-26T09:05:49.063Z,99.90
2018-01-26T09:08:16.728Z,99.90
2018-01-26T09:10:44.382Z,99.90
2018-01-26T09:13:12.867Z,99.90
2018-01-26T09:15:41.462Z,99.90
2018-01-26T09:18:09.132Z,99.90
2018-01-26T09:20:37.728Z,99.90
2018-01-26T09:23:07.612Z,99.90
2018-01-26T09:25:35.253Z,99.90
2018-01-26T09:28:03.673Z,99.90
2018-01-26T09:30:31.431Z,99.90
2018-01-26T09:32:59.058Z,99.90
2018-01-26T09:35:26.796Z,99.90
2018-01-26T09:37:54.435Z,99.90
2018-01-26T09:40:22.165Z,99.90
2018-01-26T09:42:49.985Z,99.90
2018-01-26T09:45:17.657Z,99.90
2018-01-26T09:47:45.337Z,99.90
2018-01-26T09:50:13.115Z,99.90
2018-01-26T09:52:40.819Z,99.90
2018-01-26T09:55:10.361Z,99.90
2018-01-26T09:57:38.130Z,99.90
2018-01-26T10:00:06.450Z,99.90
2018-01-26T10:02:34.215Z,99.90
2018-01-26T10:05:02.234Z,99.90
2018-01-26T10:07:30.701Z,99.90
2018-01-26T10:09:58.457Z,99.90
2018-01-26T10:12:26.118Z,99.90
2018-01-26T10:14:55.086Z,99.90
2018-01-26T10:17:23.763Z,99.90
2018-01-26T10:19:51.477Z,99.90
2018-01-26T10:22:19.264Z,99.90
2018-01-26T10:24:47.064Z,99.90
2018-01-26T10:27:15.523Z,99.90
2018-01-26T10:29:45.000Z,99.90
2018-01-26T10:32:14.502Z,99.90
2018-01-26T10:34:44.223Z,99.90
2018-01-26T10:37:13.636Z,99.90
2018-01-26T10:39:43.801Z,99.90
2018-01-26T10:42:11.358Z,99.90
2018-01-26T10:44:41.422Z,99.90
2018-01-26T10:47:11.536Z,99.90
2018-01-26T10:49:41.744Z,99.90
2018-01-26T10:52:09.432Z,99.90
2018-01-26T10:54:37.091Z,99.90
2018-01-26T10:57:05.402Z,99.90
2018-01-26T10:59:32.942Z,99.90
2018-01-26T11:02:01.332Z,99.90
2018-01-26T11:04:29.811Z,99.90
2018-01-26T11:06:57.515Z,99.90
2018-01-26T11:09:25.128Z,99.90
2018-01-26T11:11:52.717Z,99.90
2018-01-26T11:14:20.308Z,99.90
2018-01-26T11:16:48.090Z,99.90
2018-01-26T11:19:15.688Z,99.90
2018-01-26T11:21:43.402Z,99.90
2018-01-26T11:24:10.980Z,99.90
2018-01-26T11:26:38.648Z,99.90
2018-01-26T11:29:06.219Z,99.90
2018-01-26T11:31:34.013Z,99.90
2018-01-26T11:34:03.200Z,99.90
2018-01-26T11:36:30.865Z,99.90
2018-01-26T11:38:58.582Z,99.90
2018-01-26T11:41:29.470Z,99.90
2018-01-26T11:43:57.266Z,99.90
2018-01-26T11:46:24.948Z,99.90
2018-01-26T11:49:02.828Z,99.90
2018-01-26T11:51:37.817Z,99.90
2018-01-26T11:54:14.682Z,99.90
2018-01-26T11:56:54.823Z,99.90
2018-01-26T11:59:23.174Z,99.90
2018-01-26T12:02:02.007Z,99.90
2018-01-26T12:04:31.667Z,99.90
2018-01-26T12:07:01.025Z,99.90
2018-01-26T12:09:30.313Z,99.90
2018-01-26T12:11:58.063Z,99.90
2018-01-26T12:14:25.846Z,99.90
2018-01-26T12:16:53.724Z,99.90
2018-01-26T12:19:21.314Z,99.90
2018-01-26T12:21:48.938Z,99.90
2018-01-26T12:24:16.887Z,99.90
2018-01-26T12:26:44.958Z,99.90
2018-01-26T12:29:13.057Z,99.90
2018-01-26T12:31:41.154Z,99.90
2018-01-26T12:34:09.493Z,99.90
2018-01-26T12:36:37.336Z,99.90
2018-01-26T12:39:08.243Z,99.90
2018-01-26T12:41:35.894Z,99.90
2018-01-26T12:44:06.141Z,99.90
2018-01-26T12:46:45.239Z,99.90
2018-01-26T12:49:13.658Z,99.90
2018-01-26T12:51:41.369Z,99.90
2018-01-26T12:54:08.950Z,99.90
2018-01-26T12:56:36.684Z,99.90
2018-01-26T12:59:04.391Z,99.90
2018-01-26T13:01:32.164Z,99.90
2018-01-26T13:03:59.884Z,99.90
2018-01-26T13:06:28.402Z,99.90
2018-01-26T13:08:56.213Z,99.90
2018-01-26T13:11:26.424Z,99.90
2018-01-26T13:13:55.405Z,99.90
2018-01-26T13:16:24.728Z,99.90
2018-01-26T13:18:58.311Z,99.90
2018-01-26T13:21:29.932Z,99.90
2018-01-26T13:26:43.286Z,99.90
2018-01-26T13:29:11.337Z,99.90
2018-01-26T13:31:39.094Z,99.90
2018-01-26T13:34:06.950Z,99.90
2018-01-26T13:36:34.771Z,99.90
2018-01-26T13:39:02.573Z,99.90
2018-01-26T13:41:30.355Z,99.90
2018-01-26T13:43:58.094Z,99.90
2018-01-26T13:46:26.058Z,99.90
2018-01-26T13:48:56.128Z,99.90
2018-01-26T13:51:23.782Z,99.90
2018-01-26T13:53:51.425Z,99.90
2018-01-26T13:56:19.154Z,99.90
2018-01-26T13:58:46.780Z,99.90
2018-01-26T14:01:14.389Z,99.90
2018-01-26T14:03:41.956Z,99.90
2018-01-26T14:06:10.370Z,99.90
2018-01-26T14:08:37.923Z,99.90
2018-01-26T14:11:05.568Z,99.90
2018-01-26T14:13:33.229Z,99.90
2018-01-26T14:16:00.935Z,99.90
2018-01-26T14:18:28.603Z,99.90
2018-01-26T14:20:56.300Z,99.90
2018-01-26T14:23:23.931Z,99.90
2018-01-26T14:25:51.518Z,99.90
2018-01-26T14:28:19.221Z,99.90
2018-01-26T14:30:47.651Z,99.90
2018-01-26T14:33:15.366Z,99.90
2018-01-26T14:35:44.015Z,99.90
2018-01-26T14:38:11.659Z,99.90
2018-01-26T14:40:39.319Z,99.90
2018-01-26T14:43:06.962Z,99.90
2018-01-26T14:45:35.315Z,99.90
2018-01-26T14:48:02.928Z,99.90
2018-01-26T14:50:30.581Z,99.90
2018-01-26T14:52:59.028Z,99.90
2018-01-26T14:55:26.663Z,99.90
2018-01-26T14:57:54.325Z,99.90
2018-01-26T15:00:22.672Z,99.90
2018-01-26T15:02:50.414Z,99.90
2018-01-26T15:05:18.913Z,99.90
2018-01-26T15:07:47.414Z,99.90
2018-01-26T15:10:15.078Z,99.90
2018-01-26T15:12:42.766Z,99.90
2018-01-26T15:15:10.486Z,99.90
2018-01-26T15:17:38.122Z,99.90
2018-01-26T15:20:05.755Z,99.90
2018-01-26T15:22:33.307Z,99.90
2018-01-26T15:25:00.935Z,99.90
2018-01-26T15:27:29.316Z,99.90
2018-01-26T15:29:56.951Z,99.90
2018-01-26T15:32:24.617Z,99.90
2018-01-26T15:34:52.241Z,99.90
2018-01-26T15:37:20.396Z,99.90
2018-01-26T15:39:47.939Z,99.90
2018-01-26T15:42:15.580Z,99.90
2018-01-26T15:44:44.085Z,99.90
2018-01-26T15:47:12.041Z,99.90
2018-01-26T15:49:40.607Z,99.90
2018-01-26T15:52:08.233Z,99.90
2018-01-26T15:54:36.010Z,99.90
2018-01-26T15:57:04.718Z,99.90
2018-01-26T15:59:32.439Z,99.90
2018-01-26T16:02:00.163Z,99.90
2018-01-26T16:04:28.050Z,99.90
2018-01-26T16:06:57.242Z,99.90
2018-01-26T16:09:24.919Z,99.90
2018-01-26T16:11:52.581Z,99.90
2018-01-26T16:14:20.256Z,99.90
2018-01-26T16:16:48.115Z,99.90
2018-01-26T16:19:16.581Z,99.90
2018-01-26T16:21:44.408Z,99.90
2018-01-26T16:24:12.110Z,99.90
2018-01-26T16:26:40.592Z,99.90
2018-01-26T16:29:08.947Z,99.90
2018-01-26T16:31:36.595Z,99.90
2018-01-26T16:34:04.281Z,99.90
2018-01-26T16:36:32.072Z,99.90
2018-01-26T16:38:59.806Z,99.90
2018-01-26T16:41:27.816Z,99.90
2018-01-26T16:43:55.629Z,99.90
2018-01-26T16:46:23.402Z,99.90
2018-01-26T16:48:51.029Z,99.90
2018-01-26T16:51:18.957Z,99.90
2018-01-26T16:53:47.424Z,99.90
2018-01-26T16:56:15.228Z,99.90
2018-01-26T16:58:42.936Z,99.90
2018-01-26T17:01:11.349Z,99.90
2018-01-26T17:03:39.114Z,99.90
2018-01-26T17:06:06.711Z,99.90
2018-01-26T17:08:34.682Z,99.90
2018-01-26T17:11:03.440Z,99.90
2018-01-26T17:13:31.275Z,99.90
2018-01-26T17:15:58.899Z,99.90
2018-01-26T17:18:28.501Z,99.90
2018-01-26T17:20:56.156Z,99.90
2018-01-26T17:23:24.027Z,99.90
2018-01-26T17:25:51.758Z,99.90
2018-01-26T17:28:20.218Z,99.90
2018-01-26T17:30:47.850Z,99.90
2018-01-26T17:33:16.308Z,99.90
2018-01-26T17:35:43.990Z,99.90
2018-01-26T17:38:11.607Z,99.90
2018-01-26T17:40:39.227Z,99.90
2018-01-26T17:43:06.827Z,99.90
2018-01-26T17:45:35.189Z,99.90
2018-01-26T17:48:02.805Z,99.90
2018-01-26T17:50:31.298Z,99.90
2018-01-26T17:52:59.817Z,99.90
2018-01-26T17:55:27.472Z,99.90
2018-01-26T17:57:55.969Z,99.90
2018-01-26T18:00:23.632Z,99.90
2018-01-26T18:02:52.092Z,99.90
2018-01-26T18:05:19.762Z,99.90
2018-01-26T18:07:47.489Z,99.90
2018-01-26T18:10:15.952Z,99.90
2018-01-26T18:12:45.088Z,99.90
2018-01-26T18:15:13.546Z,99.90
2018-01-26T18:17:41.197Z,99.90
2018-01-26T18:20:09.384Z,99.90
2018-01-26T18:22:36.993Z,99.90
2018-01-26T18:25:04.672Z,99.90
2018-01-26T18:27:32.344Z,99.90
2018-01-26T18:30:06.095Z,99.90
2018-01-26T18:32:34.895Z,99.90
2018-01-26T18:35:06.513Z,99.90
2018-01-26T18:37:35.800Z,99.90
2018-01-26T18:40:04.536Z,99.90
2018-01-26T18:42:32.357Z,99.90
2018-01-26T18:45:01.171Z,99.90
2018-01-26T18:47:33.667Z,99.90
2018-01-26T18:50:04.622Z,99.90
2018-01-26T18:55:10.220Z,99.90
2018-01-26T18:57:43.095Z,99.90
2018-01-26T19:00:11.058Z,99.90
2018-01-26T19:02:38.792Z,99.90
2018-01-26T19:05:06.713Z,99.90
2018-01-26T19:07:36.527Z,99.90
2018-01-26T19:10:05.856Z,99.90
2018-01-26T19:15:11.429Z,99.90
2018-01-26T19:17:39.695Z,99.90
2018-01-26T19:20:18.568Z,99.90
2018-01-26T19:22:50.196Z,99.90
2018-01-26T19:25:27.137Z,99.90
2018-01-26T19:27:55.864Z,99.90
2018-01-26T19:33:02.318Z,99.90
2018-01-26T19:35:30.751Z,99.90
2018-01-26T19:37:59.147Z,99.90
2018-01-26T19:40:29.323Z,99.90
2018-01-26T19:42:58.055Z,99.90
2018-01-26T19:45:26.541Z,99.90
2018-01-26T19:47:55.113Z,99.90
2018-01-26T19:50:24.657Z,99.90
2018-01-26T19:52:55.395Z,99.90
2018-01-26T19:55:23.492Z,99.90
2018-01-26T19:57:56.676Z,99.90
2018-01-26T20:00:25.167Z,99.90
2018-01-26T20:02:57.135Z,99.90
2018-01-26T20:05:44.345Z,99.90
2018-01-26T20:08:29.383Z,99.90
2018-01-26T20:10:57.057Z,99.90
2018-01-26T20:13:27.734Z,99.90
2018-01-26T20:16:03.413Z,99.90
2018-01-26T20:18:33.798Z,99.90
2018-01-26T20:21:03.182Z,99.90
2018-01-26T20:23:30.910Z,99.90
2018-01-26T20:26:00.786Z,99.90
2018-01-26T20:28:29.137Z,99.90
2018-01-26T20:30:56.900Z,99.90
2018-01-26T20:33:25.366Z,99.90
2018-01-26T20:35:53.116Z,99.90
2018-01-26T20:38:20.850Z,99.90
2018-01-26T20:40:48.455Z,99.90
2018-01-26T20:43:21.029Z,99.90
2018-01-26T20:45:52.948Z,99.90
2018-01-26T20:48:22.177Z,99.90
2018-01-26T20:50:49.766Z,99.90
2018-01-26T20:53:17.444Z,99.90
2018-01-26T20:55:45.133Z,99.90
2018-01-26T20:58:12.766Z,99.90
2018-01-26T21:00:40.439Z,99.90
2018-01-26T21:03:08.049Z,99.90
2018-01-26T21:05:35.687Z,99.90
2018-01-26T21:08:03.329Z,99.90
2018-01-26T21:10:31.005Z,99.90
2018-01-26T21:12:58.651Z,99.90
2018-01-26T21:15:26.352Z,99.90
2018-01-26T21:17:53.990Z,99.90
2018-01-26T21:20:21.630Z,99.90
2018-01-26T21:22:50.125Z,99.90
2018-01-26T21:25:17.846Z,99.90
2018-01-26T21:27:45.470Z,99.90
2018-01-26T21:30:13.099Z,99.90
2018-01-26T21:32:41.334Z,99.90
2018-01-26T21:38:11.701Z,99.90
2018-01-26T21:40:39.311Z,99.90
2018-01-26T21:43:09.548Z,99.90
2018-01-26T21:45:48.443Z,99.90
2018-01-26T21:48:18.639Z,99.90
2018-01-26T21:50:47.035Z,99.90
2018-01-26T21:53:15.387Z,99.90
2018-01-26T21:55:43.011Z,99.90
2018-01-26T21:58:11.594Z,99.90
2018-01-26T22:00:39.960Z,99.90
2018-01-26T22:03:15.750Z,99.90
2018-01-26T22:05:43.422Z,99.90
2018-01-26T22:08:10.997Z,99.90
2018-01-26T22:10:40.019Z,99.90
2018-01-26T22:13:09.223Z,99.90
2018-01-26T22:15:38.952Z,99.90
2018-01-26T22:18:07.379Z,99.90
2018-01-26T22:20:35.336Z,99.90
2018-01-26T22:23:03.487Z,99.90
2018-01-26T22:25:31.420Z,99.90
2018-01-26T22:27:59.268Z,99.90
2018-01-26T22:30:27.085Z,99.90
2018-01-26T22:32:54.900Z,99.90
2018-01-26T22:35:22.765Z,99.90
2018-01-26T22:37:50.382Z,99.90
2018-01-26T22:40:18.814Z,99.90
2018-01-26T22:42:46.494Z,99.90
2018-01-26T22:45:14.218Z,99.90
2018-01-26T22:47:42.003Z,99.90
2018-01-26T22:50:09.669Z,99.90
2018-01-26T22:52:37.382Z,99.90
2018-01-26T22:55:07.448Z,99.90
2018-01-26T22:57:39.150Z,99.90
2018-01-26T23:00:08.478Z,99.90
2018-01-26T23:02:42.293Z,99.90
2018-01-26T23:05:14.656Z,99.90
2018-01-26T23:07:45.010Z,99.90
2018-01-26T23:10:16.475Z,99.90
2018-01-26T23:12:44.969Z,99.90
2018-01-26T23:15:12.840Z,99.90
2018-01-26T23:17:41.243Z,99.90
2018-01-26T23:20:09.846Z,99.90
2018-01-26T23:22:38.165Z,99.90
2018-01-26T23:25:09.181Z,99.90
2018-01-26T23:27:39.101Z,99.90
2018-01-26T23:30:09.822Z,99.90
2018-01-26T23:32:42.642Z,99.90
2018-01-26T23:35:10.251Z,99.90
2018-01-26T23:37:38.610Z,99.90
2018-01-26T23:40:06.663Z,99.90
2018-01-26T23:42:34.759Z,99.90
2018-01-26T23:45:04.601Z,99.90
2018-01-26T23:47:33.001Z,99.90
2018-01-26T23:50:01.873Z,99.90
2018-01-26T23:52:31.567Z,99.90
2018-01-26T23:55:04.904Z,99.90
2018-01-26T23:57:37.481Z,99.90
